Etusivu
METAR-TAF:

METAR-TAF

Lentoasemat :

Trollhättan-Vänersborg, Ruotsi

Leveyspiiri: 58-19N, Pituuspiiri: 012-21E, korkeus merenpinnasta: 41 m

Tämänhetkinen sää

Tämä raportti tehtiin 15 tuntia ja 20 minuuttia sitten, kello 07.20 UTC
Tuuli 6 kn idästä
Lämpötila -2°C
Kosteus 93%
Ilmanpaine 1004 hPa
Näkyvyys: 9000 m
Hajonneita pilviä 800 ft:n korkeudessa
lumisadetta

METAR: ESGT 200720Z 09006KT 9000 SN BKN008 M02/M03 Q1004

Aika: 23:40 (22:40 UTC)


TAF: puuttuu

Säähavainnot ja -ennusteet yli 4000 lentoasemalta (METAR- ja TAF-raportit).

Käytössä olevat sääasemat on merkitty karttaan keltaisilla ja punaisilla pisteillä.

Aseta hiiri pisteen päälle nähdäksesi sääaseman nimen.

Klikkaa sitten nähdäksesi säähavainnot ja -ennusteet.

Kartan vaihtaminen: klikkaa mustalla rastilla varustettuja vihreitä pisteitä, niin voit zoomata sisään; viivalla varustettua vihreää pistettä, niin voit zoomata ulos tai vihreitä nuolia, niin pääset viereisille kartoille.


METAR-TAF: